YMA7123 KRNO-KPDX
Flight info
| Callsign | YMA7123 |
|---|---|
| Flight time | N/A |
| Altitude | 32000 |
| Route | KRNO PVINE HALLE WINDEL LMT PANOC KPDX |
| Aircraft | B738/M-L/2000 |
Departure
| Time | 2026-05-07 08:29 |
|---|---|
| Airport | Reno Tahoe International Airport (KRNO) |
Arrival
| Time | N/A |
|---|---|
| Airport | Portland International Airport (KPDX) |
| Time | Latitude | Longitude | Altitude | Speed | Heading |
|---|---|---|---|---|---|
| 2026-05-07 07:49 | 39.50440 | -119.77328 | 4414 ft | 0 kts | 0° |
| 2026-05-07 08:12 | 39.50439 | -119.77328 | 4414 ft | 1 kts | 0° |
| 2026-05-07 08:13 | 39.50422 | -119.77329 | 4414 ft | 2 kts | 11° |
| 2026-05-07 08:13 | 39.50407 | -119.77335 | 4414 ft | 1 kts | 25° |
| 2026-05-07 08:13 | 39.50400 | -119.77339 | 4414 ft | 2 kts | 32° |
| 2026-05-07 08:13 | 39.50396 | -119.77343 | 4414 ft | 2 kts | 38° |
| 2026-05-07 08:14 | 39.50385 | -119.77356 | 4414 ft | 1 kts | 51° |
| 2026-05-07 08:14 | 39.50381 | -119.77363 | 4414 ft | 1 kts | 56° |
| 2026-05-07 08:14 | 39.50380 | -119.77364 | 4414 ft | 0 kts | 55° |
| 2026-05-07 08:16 | 39.50383 | -119.77350 | 4414 ft | 2 kts | 86° |
| 2026-05-07 08:16 | 39.50379 | -119.77313 | 4414 ft | 6 kts | 98° |
| 2026-05-07 08:16 | 39.50378 | -119.77251 | 4413 ft | 9 kts | 86° |
| 2026-05-07 08:17 | 39.50379 | -119.77237 | 4412 ft | 0 kts | 85° |
| 2026-05-07 08:19 | 39.50379 | -119.77231 | 4412 ft | 3 kts | 88° |
| 2026-05-07 08:19 | 39.50373 | -119.77187 | 4411 ft | 6 kts | 113° |
| 2026-05-07 08:19 | 39.50342 | -119.77152 | 4411 ft | 5 kts | 166° |
| 2026-05-07 08:19 | 39.50285 | -119.77150 | 4411 ft | 9 kts | 182° |
| 2026-05-07 08:20 | 39.50226 | -119.77151 | 4411 ft | 10 kts | 180° |
| 2026-05-07 08:20 | 39.50149 | -119.77151 | 4411 ft | 10 kts | 179° |
| 2026-05-07 08:20 | 39.50073 | -119.77151 | 4411 ft | 13 kts | 180° |
| 2026-05-07 08:20 | 39.49968 | -119.77152 | 4411 ft | 16 kts | 180° |
| 2026-05-07 08:21 | 39.49838 | -119.77154 | 4411 ft | 19 kts | 180° |
| 2026-05-07 08:21 | 39.49710 | -119.77154 | 4411 ft | 17 kts | 180° |
| 2026-05-07 08:21 | 39.49594 | -119.77155 | 4411 ft | 16 kts | 180° |
| 2026-05-07 08:21 | 39.49487 | -119.77155 | 4411 ft | 15 kts | 181° |
| 2026-05-07 08:22 | 39.49365 | -119.77158 | 4411 ft | 19 kts | 181° |
| 2026-05-07 08:22 | 39.49234 | -119.77155 | 4411 ft | 18 kts | 179° |
| 2026-05-07 08:22 | 39.49113 | -119.77155 | 4411 ft | 16 kts | 180° |
| 2026-05-07 08:22 | 39.49005 | -119.77155 | 4411 ft | 15 kts | 180° |
| 2026-05-07 08:23 | 39.48898 | -119.77155 | 4411 ft | 15 kts | 180° |
| 2026-05-07 08:23 | 39.48798 | -119.77158 | 4412 ft | 12 kts | 181° |
| 2026-05-07 08:23 | 39.48708 | -119.77158 | 4413 ft | 13 kts | 178° |
| 2026-05-07 08:23 | 39.48621 | -119.77156 | 4415 ft | 10 kts | 179° |
| 2026-05-07 08:24 | 39.48556 | -119.77158 | 4416 ft | 7 kts | 181° |
| 2026-05-07 08:24 | 39.48505 | -119.77158 | 4417 ft | 7 kts | 180° |
| 2026-05-07 08:24 | 39.48449 | -119.77158 | 4419 ft | 8 kts | 178° |
| 2026-05-07 08:24 | 39.48392 | -119.77139 | 4420 ft | 8 kts | 142° |
| 2026-05-07 08:25 | 39.48373 | -119.77082 | 4420 ft | 6 kts | 88° |
| 2026-05-07 08:25 | 39.48379 | -119.77031 | 4420 ft | 4 kts | 88° |
| 2026-05-07 08:25 | 39.48379 | -119.76977 | 4419 ft | 7 kts | 85° |
| 2026-05-07 08:25 | 39.48409 | -119.76929 | 4418 ft | 7 kts | 11° |
| 2026-05-07 08:26 | 39.48426 | -119.76928 | 4418 ft | 0 kts | 1° |
| 2026-05-07 08:28 | 39.48440 | -119.76928 | 4418 ft | 14 kts | 360° |
| 2026-05-07 08:28 | 39.48791 | -119.76936 | 4412 ft | 86 kts | 359° |
| 2026-05-07 08:28 | 39.49617 | -119.76936 | 4408 ft | 150 kts | 0° |
| 2026-05-07 08:28 | 39.50856 | -119.76932 | 4436 ft | 199 kts | 360° |
| 2026-05-07 08:29 | 39.52128 | -119.76942 | 5309 ft | 186 kts | 1° |
| 2026-05-07 08:29 | 39.53554 | -119.76876 | 5516 ft | 219 kts | 1° |
| 2026-05-07 08:29 | 39.55147 | -119.76817 | 6041 ft | 236 kts | 1° |
| 2026-05-07 08:29 | 39.56789 | -119.76761 | 6813 ft | 242 kts | 1° |
| 2026-05-07 08:30 | 39.58490 | -119.76706 | 7710 ft | 246 kts | 1° |
| 2026-05-07 08:30 | 39.60147 | -119.76653 | 8719 ft | 243 kts | 1° |
| 2026-05-07 08:30 | 39.61868 | -119.76598 | 9526 ft | 250 kts | 1° |
| 2026-05-07 08:30 | 39.63592 | -119.76543 | 10326 ft | 254 kts | 1° |
| 2026-05-07 08:31 | 39.65443 | -119.76756 | 10474 ft | 287 kts | 340° |
| 2026-05-07 08:31 | 39.67303 | -119.78014 | 10851 ft | 309 kts | 331° |
| 2026-05-07 08:31 | 39.69175 | -119.79321 | 11832 ft | 309 kts | 332° |
| 2026-05-07 08:31 | 39.71087 | -119.80643 | 12284 ft | 329 kts | 332° |
| 2026-05-07 08:32 | 39.73181 | -119.82090 | 12574 ft | 353 kts | 332° |
| 2026-05-07 08:32 | 39.75355 | -119.83591 | 13639 ft | 352 kts | 332° |
| 2026-05-07 08:32 | 39.77506 | -119.85078 | 14642 ft | 352 kts | 332° |
| 2026-05-07 08:32 | 39.79682 | -119.86582 | 15204 ft | 365 kts | 332° |
| 2026-05-07 08:33 | 39.81875 | -119.88216 | 16139 ft | 364 kts | 323° |
| 2026-05-07 08:33 | 39.84023 | -119.89945 | 16878 ft | 368 kts | 339° |
| 2026-05-07 08:33 | 39.86382 | -119.91285 | 17634 ft | 371 kts | 333° |
| 2026-05-07 08:33 | 39.88665 | -119.92815 | 18435 ft | 373 kts | 332° |
| 2026-05-07 08:34 | 39.90982 | -119.94414 | 19057 ft | 379 kts | 332° |
| 2026-05-07 08:34 | 39.93326 | -119.95928 | 19759 ft | 382 kts | 333° |
| 2026-05-07 08:34 | 39.95572 | -119.97804 | 20380 ft | 386 kts | 329° |
| 2026-05-07 08:34 | 39.97877 | -119.99593 | 21017 ft | 390 kts | 329° |
| 2026-05-07 08:35 | 40.00215 | -120.01396 | 21662 ft | 393 kts | 329° |
| 2026-05-07 08:35 | 40.02575 | -120.03211 | 22258 ft | 397 kts | 329° |
| 2026-05-07 08:35 | 40.04980 | -120.05060 | 22860 ft | 401 kts | 329° |
| 2026-05-07 08:35 | 40.07386 | -120.06908 | 23439 ft | 404 kts | 329° |
| 2026-05-07 08:36 | 40.09809 | -120.08772 | 23983 ft | 408 kts | 329° |
| 2026-05-07 08:36 | 40.12267 | -120.10663 | 24529 ft | 411 kts | 329° |
| 2026-05-07 08:36 | 40.14710 | -120.12544 | 25044 ft | 414 kts | 329° |
| 2026-05-07 08:36 | 40.17200 | -120.14464 | 25542 ft | 417 kts | 329° |
| 2026-05-07 08:37 | 40.19724 | -120.16410 | 26036 ft | 421 kts | 329° |
| 2026-05-07 08:37 | 40.22224 | -120.18341 | 26502 ft | 424 kts | 329° |
| 2026-05-07 08:37 | 40.24777 | -120.20313 | 26956 ft | 427 kts | 329° |
| 2026-05-07 08:37 | 40.27330 | -120.22289 | 27399 ft | 430 kts | 329° |
| 2026-05-07 08:38 | 40.29911 | -120.24286 | 27820 ft | 433 kts | 329° |
| 2026-05-07 08:38 | 40.32484 | -120.26279 | 28233 ft | 435 kts | 329° |
| 2026-05-07 08:38 | 40.35128 | -120.28331 | 28647 ft | 438 kts | 329° |
| 2026-05-07 08:38 | 40.37752 | -120.30367 | 29032 ft | 441 kts | 329° |
| 2026-05-07 08:39 | 40.40366 | -120.32398 | 29406 ft | 443 kts | 329° |
| 2026-05-07 08:39 | 40.43059 | -120.34493 | 29784 ft | 446 kts | 329° |
| 2026-05-07 08:39 | 40.45762 | -120.36597 | 30144 ft | 449 kts | 329° |
| 2026-05-07 08:39 | 40.48450 | -120.38691 | 30489 ft | 451 kts | 329° |
| 2026-05-07 08:40 | 40.51167 | -120.40810 | 30835 ft | 453 kts | 329° |
| 2026-05-07 08:40 | 40.53916 | -120.42957 | 31168 ft | 456 kts | 329° |
| 2026-05-07 08:40 | 40.56643 | -120.45087 | 31483 ft | 458 kts | 329° |
| 2026-05-07 08:40 | 40.59367 | -120.47218 | 31791 ft | 460 kts | 329° |
| 2026-05-07 08:41 | 40.62134 | -120.49385 | 31983 ft | 457 kts | 329° |
| 2026-05-07 08:41 | 40.64877 | -120.51534 | 31990 ft | 458 kts | 329° |
| 2026-05-07 08:41 | 40.70378 | -120.55852 | 31999 ft | 463 kts | 329° |
| 2026-05-07 08:42 | 40.75895 | -120.60191 | 31999 ft | 462 kts | 329° |
| 2026-05-07 08:42 | 40.81426 | -120.64548 | 31999 ft | 462 kts | 329° |
| 2026-05-07 08:43 | 40.86893 | -120.68864 | 31999 ft | 462 kts | 329° |
| 2026-05-07 08:43 | 40.92430 | -120.73244 | 31999 ft | 462 kts | 329° |
| 2026-05-07 08:44 | 40.97917 | -120.77593 | 31999 ft | 462 kts | 329° |
| 2026-05-07 08:44 | 41.03415 | -120.81959 | 31999 ft | 462 kts | 329° |
| 2026-05-07 08:45 | 41.08907 | -120.86329 | 31999 ft | 462 kts | 329° |
| 2026-05-07 08:45 | 41.14406 | -120.90713 | 31999 ft | 462 kts | 329° |
| 2026-05-07 08:46 | 41.19886 | -120.95091 | 31999 ft | 462 kts | 329° |
| 2026-05-07 08:46 | 41.25381 | -120.99489 | 31999 ft | 462 kts | 329° |
| 2026-05-07 08:47 | 41.30872 | -121.03893 | 31999 ft | 462 kts | 329° |
| 2026-05-07 08:47 | 41.36369 | -121.08310 | 31999 ft | 462 kts | 329° |
| 2026-05-07 08:48 | 41.41861 | -121.12733 | 31999 ft | 462 kts | 329° |
| 2026-05-07 08:48 | 41.47363 | -121.17172 | 31999 ft | 462 kts | 329° |
| 2026-05-07 08:49 | 41.52862 | -121.21618 | 31999 ft | 462 kts | 329° |
| 2026-05-07 08:49 | 41.58332 | -121.26049 | 31999 ft | 462 kts | 329° |
| 2026-05-07 08:50 | 41.63857 | -121.30534 | 31999 ft | 462 kts | 329° |
| 2026-05-07 08:50 | 41.69352 | -121.35003 | 31999 ft | 462 kts | 329° |
| 2026-05-07 08:51 | 41.74847 | -121.39481 | 31999 ft | 462 kts | 329° |
| 2026-05-07 08:51 | 41.80352 | -121.43977 | 31998 ft | 459 kts | 329° |
| 2026-05-07 08:52 | 41.85723 | -121.48372 | 31998 ft | 448 kts | 329° |
| 2026-05-07 08:52 | 41.91017 | -121.52713 | 32001 ft | 451 kts | 329° |
| 2026-05-07 08:53 | 41.96392 | -121.57128 | 31999 ft | 452 kts | 329° |
| 2026-05-07 08:53 | 42.01734 | -121.61526 | 31999 ft | 451 kts | 329° |
| 2026-05-07 08:54 | 42.07114 | -121.65964 | 31999 ft | 451 kts | 328° |
| 2026-05-07 08:54 | 42.12442 | -121.70367 | 31999 ft | 451 kts | 328° |
| 2026-05-07 08:55 | 42.15194 | -121.72398 | 31979 ft | 451 kts | 339° |
| 2026-05-07 08:55 | 42.18238 | -121.73336 | 32025 ft | 450 kts | 355° |
| 2026-05-07 08:55 | 42.24482 | -121.74050 | 32007 ft | 452 kts | 354° |
| 2026-05-07 08:56 | 42.30732 | -121.74903 | 32000 ft | 451 kts | 354° |
| 2026-05-07 08:56 | 42.36960 | -121.75771 | 31999 ft | 451 kts | 354° |
| 2026-05-07 08:57 | 42.43204 | -121.76646 | 31999 ft | 451 kts | 354° |
| 2026-05-07 08:57 | 42.49453 | -121.77523 | 31999 ft | 451 kts | 354° |
| 2026-05-07 08:58 | 42.55692 | -121.78400 | 31999 ft | 451 kts | 354° |
| 2026-05-07 08:58 | 42.61932 | -121.79280 | 31999 ft | 451 kts | 354° |
| 2026-05-07 08:59 | 42.68210 | -121.80167 | 31999 ft | 451 kts | 354° |
| 2026-05-07 08:59 | 42.74485 | -121.81055 | 31999 ft | 451 kts | 354° |
| 2026-05-07 09:00 | 42.80718 | -121.81939 | 31999 ft | 451 kts | 354° |
| 2026-05-07 09:00 | 42.86950 | -121.82825 | 31999 ft | 451 kts | 354° |
| 2026-05-07 09:01 | 42.93178 | -121.83711 | 31999 ft | 451 kts | 354° |
| 2026-05-07 09:01 | 42.99429 | -121.84603 | 31999 ft | 451 kts | 354° |
| 2026-05-07 09:02 | 43.05652 | -121.85493 | 31999 ft | 451 kts | 354° |
| 2026-05-07 09:02 | 43.11881 | -121.86385 | 31999 ft | 451 kts | 354° |
| 2026-05-07 09:03 | 43.18037 | -121.87269 | 31984 ft | 427 kts | 354° |
| 2026-05-07 09:03 | 43.20887 | -121.87678 | 31973 ft | 408 kts | 354° |
| 2026-05-07 09:03 | 43.23643 | -121.88075 | 31956 ft | 389 kts | 354° |
| 2026-05-07 09:04 | 43.28930 | -121.88837 | 32005 ft | 385 kts | 354° |
| 2026-05-07 09:04 | 43.34389 | -121.89625 | 32001 ft | 396 kts | 354° |
| 2026-05-07 09:05 | 43.39814 | -121.90410 | 31997 ft | 393 kts | 354° |
| 2026-05-07 09:05 | 43.45233 | -121.91195 | 31999 ft | 392 kts | 354° |
| 2026-05-07 09:06 | 43.50687 | -121.91986 | 31999 ft | 393 kts | 354° |
| 2026-05-07 09:06 | 43.56095 | -121.92773 | 31999 ft | 393 kts | 354° |
| 2026-05-07 09:07 | 43.61548 | -121.93567 | 31999 ft | 393 kts | 354° |
| 2026-05-07 09:07 | 43.66973 | -121.94359 | 31999 ft | 393 kts | 354° |
| 2026-05-07 09:08 | 43.72388 | -121.95150 | 31999 ft | 393 kts | 354° |
| 2026-05-07 09:08 | 43.77798 | -121.95943 | 31999 ft | 393 kts | 354° |
| 2026-05-07 09:09 | 43.83224 | -121.96738 | 31999 ft | 393 kts | 354° |
| 2026-05-07 09:09 | 43.88673 | -121.97540 | 31999 ft | 393 kts | 354° |
| 2026-05-07 09:10 | 43.94087 | -121.98337 | 31999 ft | 393 kts | 354° |
| 2026-05-07 09:10 | 43.99530 | -121.99139 | 31785 ft | 395 kts | 354° |
| 2026-05-07 09:11 | 44.04907 | -121.99934 | 31789 ft | 389 kts | 354° |
| 2026-05-07 09:11 | 44.10326 | -122.00737 | 31791 ft | 392 kts | 354° |
| 2026-05-07 09:12 | 44.15723 | -122.01537 | 31789 ft | 392 kts | 354° |
| 2026-05-07 09:12 | 44.21065 | -122.02331 | 31237 ft | 384 kts | 354° |
| 2026-05-07 09:13 | 44.23745 | -122.02731 | 30380 ft | 389 kts | 354° |
| 2026-05-07 09:13 | 44.26392 | -122.03124 | 30019 ft | 380 kts | 354° |
| 2026-05-07 09:13 | 44.29010 | -122.03515 | 29600 ft | 374 kts | 354° |
| 2026-05-07 09:13 | 44.31600 | -122.03902 | 28886 ft | 377 kts | 354° |
| 2026-05-07 09:14 | 44.34170 | -122.04285 | 28427 ft | 371 kts | 354° |
| 2026-05-07 09:14 | 44.36724 | -122.04667 | 27995 ft | 366 kts | 354° |
| 2026-05-07 09:14 | 44.39251 | -122.05045 | 27379 ft | 366 kts | 354° |
| 2026-05-07 09:14 | 44.41774 | -122.05423 | 26883 ft | 362 kts | 354° |
| 2026-05-07 09:15 | 44.44239 | -122.05792 | 26440 ft | 358 kts | 354° |
| 2026-05-07 09:15 | 44.46729 | -122.06166 | 25882 ft | 357 kts | 354° |
| 2026-05-07 09:15 | 44.49189 | -122.06535 | 25379 ft | 354 kts | 354° |
| 2026-05-07 09:15 | 44.51623 | -122.06901 | 24919 ft | 350 kts | 354° |
| 2026-05-07 09:16 | 44.54031 | -122.07263 | 24405 ft | 348 kts | 354° |
| 2026-05-07 09:16 | 44.56404 | -122.07620 | 23913 ft | 345 kts | 354° |
| 2026-05-07 09:16 | 44.58781 | -122.07978 | 23250 ft | 342 kts | 354° |
| 2026-05-07 09:16 | 44.61131 | -122.08333 | 22428 ft | 341 kts | 354° |
| 2026-05-07 09:17 | 44.63435 | -122.08681 | 21764 ft | 335 kts | 354° |
| 2026-05-07 09:17 | 44.65750 | -122.09029 | 21091 ft | 330 kts | 354° |
| 2026-05-07 09:17 | 44.68002 | -122.09370 | 20338 ft | 329 kts | 354° |
| 2026-05-07 09:17 | 44.70271 | -122.09713 | 19646 ft | 325 kts | 354° |
| 2026-05-07 09:18 | 44.72473 | -122.10046 | 18989 ft | 320 kts | 354° |
| 2026-05-07 09:18 | 44.74687 | -122.10382 | 18323 ft | 319 kts | 354° |
| 2026-05-07 09:18 | 44.76859 | -122.10711 | 17972 ft | 313 kts | 354° |
| 2026-05-07 09:18 | 44.77708 | -122.10840 | 17819 ft | 312 kts | 354° |
| 2026-05-07 09:19 | 44.79863 | -122.11166 | 17323 ft | 312 kts | 354° |
| 2026-05-07 09:19 | 44.81994 | -122.11490 | 16879 ft | 310 kts | 354° |
| 2026-05-07 09:19 | 44.84136 | -122.11816 | 16489 ft | 307 kts | 354° |
| 2026-05-07 09:19 | 44.86259 | -122.12138 | 16030 ft | 306 kts | 354° |
| 2026-05-07 09:20 | 44.88362 | -122.12458 | 15606 ft | 304 kts | 354° |
| 2026-05-07 09:20 | 44.90445 | -122.12775 | 15201 ft | 301 kts | 354° |
| 2026-05-07 09:20 | 44.92512 | -122.13091 | 14990 ft | 290 kts | 354° |
| 2026-05-07 09:20 | 44.94467 | -122.13390 | 14916 ft | 273 kts | 354° |
| 2026-05-07 09:21 | 44.96294 | -122.13668 | 14806 ft | 255 kts | 354° |
| 2026-05-07 09:21 | 44.98012 | -122.13930 | 14415 ft | 251 kts | 354° |
| 2026-05-07 09:21 | 44.99764 | -122.14198 | 13819 ft | 255 kts | 354° |
| 2026-05-07 09:21 | 45.01516 | -122.14467 | 13437 ft | 249 kts | 354° |
| 2026-05-07 09:22 | 45.03223 | -122.14728 | 13010 ft | 247 kts | 354° |
| 2026-05-07 09:22 | 45.04930 | -122.14990 | 12507 ft | 248 kts | 354° |
| 2026-05-07 09:22 | 45.06622 | -122.15248 | 12093 ft | 244 kts | 354° |
| 2026-05-07 09:22 | 45.08311 | -122.15507 | 11657 ft | 243 kts | 354° |